Huvudsida
METAR-TAF:

METAR-TAF

Flygplatser :

Budapest-Ferenc Liszts internationella flygplats

Budapest, Ungern

latitud: 47-26N, longitud: 019-16E, höjd: 151 m

Aktuellt väderrapport

Denna rapport gjordes för 34 minuter sedan, klockan 14:00 UTC
Vind 11 kt från ost/nordost
Temperatur 10°C
Fuktighet 50%
Tryck 1031 hPa
Sikt 10 km eller mer
Inga moln under 1 500 m eller inga cumulonimbus

METAR: LHBP 161400Z 07011KT CAVOK 10/00 Q1031 NOSIG

Tid: 15:34 (14:34 UTC)

Väderprognos

Denna rapport gjordes för 3 timmar och 19 minuter sedan, klockan 11:15 UTC
Prognos gäller från 16 kl. 12 UTC till 17 kl. 12 UTC
Vind 12 kt från ost/nordost
Sikt 10 km eller mer
Inga moln under 1 500 m eller inga cumulonimbus
Blir
från 16 kl. 16 UTC till 16 kl. 18 UTC
Vind 6 kt från nordost
Blir
från 17 kl. 08 UTC till 17 kl. 10 UTC
Vind 10 kt från ost/nordost

TAF: LHBP 161115Z 1612/1712 06012KT CAVOK BECMG 1616/1618 04006KT BECMG 1708/1710 06010KT

Aktuella väderrapporter och prognoser från 4000 flygplatser (METAR- och TAF-rapporter).

De tillgängliga stationerna syns som gula och röda prickar på kartan.

För musen över prickarna för att se namnen på stationerna.

Klicka sedan för att få väderrapporter och prognoser.

För att ändra kartan: Klicka på de gröna knapparna med ett svart kors på för att zooma in; den gröna knappen med ett streck på för att zooma ut; eller på de gröna pilarna för angränsande kartor.


METAR-TAF: